createdAt,value
2023-02-11T00:00:41.999Z,12.98
2023-02-11T00:03:09.048Z,12.05
2023-02-11T00:05:35.505Z,14.35
2023-02-11T00:08:01.973Z,12.52
2023-02-11T00:10:28.313Z,12.52
2023-02-11T00:12:54.724Z,12.70
2023-02-11T00:15:21.318Z,14.05
2023-02-11T00:17:47.871Z,12.02
2023-02-11T00:20:14.365Z,13.63
2023-02-11T00:22:40.802Z,12.27
2023-02-11T00:25:07.298Z,13.77
2023-02-11T00:27:33.774Z,12.40
2023-02-11T00:30:02.271Z,12.75
2023-02-11T00:32:28.790Z,12.13
2023-02-11T00:34:55.478Z,12.75
2023-02-11T00:37:22.582Z,11.60
2023-02-11T00:39:50.159Z,12.13
2023-02-11T00:42:16.805Z,14.10
2023-02-11T00:44:43.296Z,11.95
2023-02-11T00:47:09.766Z,13.10
2023-02-11T00:49:36.898Z,11.20
2023-02-11T00:52:03.588Z,10.18
2023-02-11T00:54:30.113Z,12.23
2023-02-11T00:56:56.612Z,11.95
2023-02-11T00:59:23.034Z,11.30
2023-02-11T01:01:49.615Z,10.48
2023-02-11T01:04:16.140Z,10.43
2023-02-11T01:06:42.547Z,11.73
2023-02-11T01:09:09.025Z,10.57
2023-02-11T01:11:35.797Z,12.27
2023-02-11T01:14:02.415Z,10.38
2023-02-11T01:16:28.856Z,13.95
2023-02-11T01:18:55.349Z,12.45
2023-02-11T01:21:21.923Z,11.70
2023-02-11T01:23:48.417Z,12.02
2023-02-11T01:26:14.816Z,11.32
2023-02-11T01:28:41.580Z,12.70
2023-02-11T01:31:08.069Z,11.77
2023-02-11T01:33:34.591Z,10.23
2023-02-11T01:36:03.044Z,11.07
2023-02-11T01:38:30.689Z,12.05
2023-02-11T01:41:00.933Z,12.27
2023-02-11T01:43:31.027Z,11.95
2023-02-11T01:46:02.089Z,12.40
2023-02-11T01:48:34.099Z,9.63
2023-02-11T01:51:11.176Z,10.05
2023-02-11T01:53:58.149Z,12.93
2023-02-11T01:56:45.564Z,12.07
2023-02-11T01:59:22.567Z,10.80
2023-02-11T02:01:56.925Z,12.13
2023-02-11T02:04:31.345Z,11.52
2023-02-11T02:07:11.755Z,10.98
2023-02-11T02:09:44.217Z,10.07
2023-02-11T02:12:10.639Z,8.93
2023-02-11T02:14:41.386Z,8.15
2023-02-11T02:17:24.050Z,10.30
2023-02-11T02:19:56.488Z,9.90
2023-02-11T02:22:47.298Z,10.77
2023-02-11T02:25:20.320Z,11.38
2023-02-11T02:27:49.718Z,10.40
2023-02-11T02:30:46.694Z,11.20
2023-02-11T02:33:34.523Z,10.73
2023-02-11T02:36:28.328Z,10.65
2023-02-11T02:38:59.140Z,12.40
2023-02-11T02:41:30.486Z,11.88
2023-02-11T02:43:57.202Z,11.32
2023-02-11T02:46:28.289Z,10.52
2023-02-11T02:48:55.815Z,10.85
2023-02-11T02:51:55.659Z,11.25
2023-02-11T02:54:43.757Z,11.63
2023-02-11T02:57:16.034Z,11.48
2023-02-11T03:00:07.430Z,11.13
2023-02-11T03:03:08.779Z,9.50
2023-02-11T03:05:37.950Z,9.57
2023-02-11T03:08:18.503Z,10.18
2023-02-11T03:10:49.326Z,10.13
2023-02-11T03:13:18.730Z,10.25
2023-02-11T03:15:51.143Z,10.85
2023-02-11T03:18:21.902Z,11.38
2023-02-11T03:20:53.250Z,9.63
2023-02-11T03:23:44.314Z,9.18
2023-02-11T03:26:30.989Z,8.55
2023-02-11T03:29:24.083Z,11.00
2023-02-11T03:32:05.448Z,11.20
2023-02-11T03:34:44.112Z,9.48
2023-02-11T03:37:21.821Z,8.93
2023-02-11T03:40:11.778Z,9.70
2023-02-11T03:42:54.621Z,10.43
2023-02-11T03:45:23.587Z,10.57
2023-02-11T03:48:20.122Z,10.38
2023-02-11T03:50:49.479Z,9.48
2023-02-11T03:53:16.213Z,9.05
2023-02-11T03:55:43.834Z,10.02
2023-02-11T03:58:10.502Z,8.52
2023-02-11T04:00:39.803Z,10.93
2023-02-11T04:03:07.396Z,8.40
2023-02-11T04:05:34.046Z,8.18
2023-02-11T04:08:00.599Z,9.00
2023-02-11T04:10:27.104Z,7.18
2023-02-11T04:12:53.614Z,8.20
2023-02-11T04:15:20.020Z,8.48
2023-02-11T04:17:46.567Z,11.05
2023-02-11T04:20:13.052Z,7.35
2023-02-11T04:22:39.710Z,8.20
2023-02-11T04:25:06.479Z,9.40
2023-02-11T04:27:32.969Z,7.97
2023-02-11T04:29:59.439Z,7.18
2023-02-11T04:32:25.888Z,7.28
2023-02-11T04:34:52.392Z,9.00
2023-02-11T04:37:18.831Z,8.90
2023-02-11T04:39:45.268Z,9.10
2023-02-11T04:42:12.210Z,9.80
2023-02-11T04:44:38.639Z,8.57
2023-02-11T04:47:05.098Z,8.73
2023-02-11T04:49:31.546Z,7.78
2023-02-11T04:51:59.271Z,7.78
2023-02-11T04:54:25.686Z,8.00
2023-02-11T04:56:52.122Z,8.85
2023-02-11T04:59:18.680Z,10.43
2023-02-11T05:01:45.109Z,8.88
2023-02-11T05:04:11.572Z,8.45
2023-02-11T05:06:39.685Z,8.98
2023-02-11T05:09:06.472Z,8.18
2023-02-11T05:11:32.977Z,7.38
2023-02-11T05:13:59.613Z,9.15
2023-02-11T05:16:29.989Z,9.98
2023-02-11T05:18:56.633Z,9.93
2023-02-11T05:21:23.084Z,8.02
2023-02-11T05:23:49.643Z,7.40
2023-02-11T05:26:16.868Z,8.38
2023-02-11T05:28:44.471Z,8.73
2023-02-11T05:31:12.077Z,8.35
2023-02-11T05:33:38.560Z,8.10
2023-02-11T05:36:08.427Z,8.20
2023-02-11T05:38:35.548Z,10.20
2023-02-11T05:41:02.700Z,8.98
2023-02-11T05:43:29.219Z,8.23
2023-02-11T05:45:55.731Z,8.65
2023-02-11T05:48:22.118Z,7.63
2023-02-11T05:50:48.806Z,10.20
2023-02-11T05:53:15.363Z,8.63
2023-02-11T05:55:41.793Z,10.45
2023-02-11T05:58:09.810Z,12.05
2023-02-11T06:00:37.328Z,10.90
2023-02-11T06:03:06.976Z,8.95
2023-02-11T06:05:33.713Z,7.55
2023-02-11T06:08:00.410Z,9.90
2023-02-11T06:10:27.176Z,9.63
2023-02-11T06:12:54.057Z,7.32
2023-02-11T06:15:20.578Z,9.02
2023-02-11T06:17:47.981Z,8.20
2023-02-11T06:20:14.445Z,9.13
2023-02-11T06:22:40.980Z,8.98
2023-02-11T06:25:07.500Z,10.15
2023-02-11T06:27:33.961Z,8.07
2023-02-11T06:30:00.383Z,11.65
2023-02-11T06:32:44.054Z,9.43
2023-02-11T06:35:12.750Z,10.55
2023-02-11T06:37:40.023Z,7.50
2023-02-11T06:40:07.343Z,11.50
2023-02-11T06:42:39.078Z,10.02
2023-02-11T06:45:06.346Z,12.32
2023-02-11T06:47:32.982Z,8.27
2023-02-11T06:50:00.054Z,10.45
2023-02-11T06:52:26.563Z,11.85
2023-02-11T06:54:55.944Z,13.88
2023-02-11T06:57:29.204Z,9.23
2023-02-11T06:59:55.911Z,9.50
2023-02-11T07:02:22.515Z,12.93
2023-02-11T07:04:49.577Z,9.15
2023-02-11T07:07:15.965Z,11.02
2023-02-11T07:09:42.456Z,13.23
2023-02-11T07:12:11.735Z,10.60
2023-02-11T07:14:38.463Z,10.35
2023-02-11T07:17:05.192Z,8.98
2023-02-11T07:19:31.691Z,9.35
2023-02-11T07:21:58.250Z,9.23
2023-02-11T07:24:25.207Z,9.55
2023-02-11T07:26:53.311Z,10.77
2023-02-11T07:29:20.293Z,12.63
2023-02-11T07:31:46.938Z,10.35
2023-02-11T07:34:15.546Z,18.25
2023-02-11T07:36:43.879Z,10.55
2023-02-11T07:39:10.403Z,11.70
2023-02-11T07:41:38.073Z,8.23
2023-02-11T07:44:04.837Z,7.47
2023-02-11T07:46:31.290Z,8.85
2023-02-11T07:48:57.906Z,7.07
2023-02-11T07:51:27.283Z,11.40
2023-02-11T07:53:55.287Z,10.15
2023-02-11T07:56:22.435Z,8.27
2023-02-11T07:58:49.610Z,9.15
2023-02-11T08:01:25.857Z,10.50
2023-02-11T08:03:53.029Z,11.70
2023-02-11T08:06:20.963Z,11.43
2023-02-11T08:08:48.300Z,9.02
2023-02-11T08:11:24.351Z,9.77
2023-02-11T08:13:51.279Z,11.75
2023-02-11T08:16:39.011Z,12.35
2023-02-11T08:19:08.591Z,9.05
2023-02-11T08:21:35.039Z,8.68
2023-02-11T08:24:03.486Z,10.93
2023-02-11T08:26:32.802Z,11.18
2023-02-11T08:28:59.544Z,10.57
2023-02-11T08:31:29.379Z,9.07
2023-02-11T08:33:58.086Z,11.48
2023-02-11T08:36:29.932Z,10.45
2023-02-11T08:39:16.119Z,10.52
2023-02-11T08:41:45.403Z,10.93
2023-02-11T08:44:12.158Z,10.60
2023-02-11T08:46:38.595Z,9.73
2023-02-11T08:49:05.089Z,9.55
2023-02-11T08:51:31.564Z,9.82
2023-02-11T08:53:58.552Z,10.52
2023-02-11T08:56:25.612Z,11.07
2023-02-11T08:58:53.210Z,13.38
2023-02-11T09:01:23.349Z,10.80
2023-02-11T09:03:56.528Z,11.95
2023-02-11T09:06:23.990Z,11.10
2023-02-11T09:08:53.168Z,11.90
2023-02-11T09:11:24.657Z,8.88
2023-02-11T09:13:53.968Z,9.05
2023-02-11T09:16:23.991Z,10.57
2023-02-11T09:18:51.008Z,9.77
2023-02-11T09:21:19.100Z,11.65
2023-02-11T09:23:47.759Z,10.95
2023-02-11T09:26:20.218Z,11.40
2023-02-11T09:28:48.461Z,12.45
2023-02-11T09:31:17.474Z,14.63
2023-02-11T09:33:48.731Z,14.18
2023-02-11T09:36:21.328Z,10.95
2023-02-11T09:38:48.700Z,17.80
2023-02-11T09:41:24.142Z,12.50
2023-02-11T09:44:04.541Z,13.55
2023-02-11T09:46:35.282Z,13.80
2023-02-11T09:49:03.901Z,12.20
2023-02-11T09:51:51.539Z,12.95
2023-02-11T09:54:28.748Z,15.32
2023-02-11T09:56:55.188Z,14.68
2023-02-11T09:59:34.538Z,14.00
2023-02-11T10:02:09.824Z,15.52
2023-02-11T10:04:57.943Z,12.10
2023-02-11T10:07:51.387Z,11.23
2023-02-11T10:10:36.821Z,13.65
2023-02-11T10:13:24.950Z,11.45
2023-02-11T10:16:11.831Z,13.77
2023-02-11T10:19:11.326Z,14.32
2023-02-11T10:21:55.919Z,13.82
2023-02-11T10:24:22.418Z,16.58
2023-02-11T10:26:49.139Z,12.70
2023-02-11T10:29:35.470Z,11.85
2023-02-11T10:32:07.327Z,12.70
2023-02-11T10:34:34.688Z,14.95
2023-02-11T10:37:01.199Z,11.30
2023-02-11T10:39:28.259Z,13.85
2023-02-11T10:41:59.131Z,12.95
2023-02-11T10:44:39.916Z,15.07
2023-02-11T10:47:18.967Z,18.10
2023-02-11T10:49:46.932Z,14.55
2023-02-11T10:52:21.251Z,16.95
2023-02-11T10:55:15.235Z,11.95
2023-02-11T10:57:56.105Z,15.13
2023-02-11T11:00:41.059Z,14.52
2023-02-11T11:03:18.685Z,15.73
2023-02-11T11:05:58.393Z,14.93
2023-02-11T11:08:44.095Z,15.70
2023-02-11T11:11:16.441Z,12.85
2023-02-11T11:14:00.285Z,15.68
2023-02-11T11:16:32.074Z,15.60
2023-02-11T11:19:07.214Z,13.63
2023-02-11T11:21:40.748Z,12.77
2023-02-11T11:24:23.073Z,14.77
2023-02-11T11:26:56.955Z,13.18
2023-02-11T11:29:32.129Z,13.57
2023-02-11T11:32:04.394Z,16.40
2023-02-11T11:34:38.513Z,18.10
2023-02-11T11:37:22.581Z,17.27
2023-02-11T11:40:00.307Z,15.25
2023-02-11T11:42:35.314Z,14.40
2023-02-11T11:45:19.675Z,14.45
2023-02-11T11:48:11.180Z,21.52
2023-02-11T11:51:10.988Z,14.57
2023-02-11T11:53:45.097Z,14.32
2023-02-11T11:56:16.215Z,13.95
2023-02-11T11:58:42.787Z,14.57
2023-02-11T12:01:21.030Z,20.00
2023-02-11T12:04:03.166Z,16.13
2023-02-11T12:06:57.021Z,12.93
2023-02-11T12:09:32.374Z,14.48
2023-02-11T12:12:17.899Z,13.35
2023-02-11T12:15:04.557Z,12.05
2023-02-11T12:18:05.230Z,14.85
2023-02-11T12:20:34.471Z,14.45
2023-02-11T12:23:28.944Z,13.40
2023-02-11T12:25:59.264Z,15.65
2023-02-11T12:28:44.785Z,13.43
2023-02-11T12:31:29.299Z,14.93
2023-02-11T12:34:05.736Z,15.32
2023-02-11T12:39:32.912Z,14.60
2023-02-11T12:42:25.930Z,17.15
2023-02-11T12:45:13.013Z,14.85
2023-02-11T12:47:58.124Z,14.70
2023-02-11T12:50:46.583Z,14.95
2023-02-11T12:53:28.223Z,14.10
2023-02-11T12:56:02.341Z,17.15
2023-02-11T12:58:44.610Z,14.57
2023-02-11T13:01:34.211Z,13.43
2023-02-11T13:04:26.856Z,16.45
2023-02-11T13:07:05.398Z,17.30
2023-02-11T13:09:58.540Z,14.95
2023-02-11T13:12:44.496Z,15.68
2023-02-11T13:15:15.245Z,16.90
2023-02-11T13:17:58.227Z,15.90
2023-02-11T13:20:47.735Z,15.50
2023-02-11T13:23:20.203Z,12.45
2023-02-11T13:26:04.843Z,15.02
2023-02-11T13:28:46.368Z,17.92
2023-02-11T13:31:16.016Z,16.60
2023-02-11T13:33:44.356Z,15.18
2023-02-11T13:36:14.471Z,19.17
2023-02-11T13:38:41.664Z,15.35
2023-02-11T13:41:30.537Z,17.67
2023-02-11T13:44:22.516Z,19.83
2023-02-11T13:47:02.360Z,17.48
2023-02-11T13:49:35.635Z,14.50
2023-02-11T13:52:06.350Z,19.10
2023-02-11T13:54:39.384Z,16.45
2023-02-11T13:57:30.188Z,17.85
2023-02-11T13:59:59.716Z,14.68
2023-02-11T14:02:53.909Z,17.33
2023-02-11T14:05:38.849Z,17.77
2023-02-11T14:08:36.868Z,17.70
2023-02-11T14:11:08.353Z,16.83
2023-02-11T14:13:36.974Z,16.48
2023-02-11T14:16:28.295Z,14.48
2023-02-11T14:19:02.408Z,12.43
2023-02-11T14:21:32.305Z,17.25
2023-02-11T14:24:01.532Z,15.63
2023-02-11T14:26:44.972Z,13.80
2023-02-11T14:29:18.196Z,15.15
2023-02-11T14:32:19.265Z,13.50
2023-02-11T14:35:00.398Z,16.45
2023-02-11T14:37:57.831Z,14.00
2023-02-11T14:42:55.435Z,16.80
2023-02-11T14:45:28.755Z,18.08
2023-02-11T14:48:03.410Z,16.60
2023-02-11T14:50:45.477Z,14.90
2023-02-11T14:53:22.550Z,14.18
2023-02-11T14:55:52.451Z,14.73
2023-02-11T14:58:23.053Z,13.52
2023-02-11T15:00:53.690Z,17.38
2023-02-11T15:03:41.220Z,14.32
2023-02-11T15:06:21.972Z,16.52
2023-02-11T15:08:54.563Z,13.48
2023-02-11T15:11:23.827Z,16.90
2023-02-11T15:13:52.139Z,17.52
2023-02-11T15:16:24.078Z,15.85
2023-02-11T15:18:57.031Z,15.88
2023-02-11T15:21:27.611Z,15.25
2023-02-11T15:24:03.504Z,15.75
2023-02-11T15:26:30.707Z,17.48
2023-02-11T15:28:57.365Z,14.52
2023-02-11T15:31:27.022Z,16.58
2023-02-11T15:33:54.532Z,16.20
2023-02-11T15:36:28.806Z,18.20
2023-02-11T15:39:35.437Z,16.27
2023-02-11T15:42:35.810Z,16.50
2023-02-11T15:45:15.273Z,16.65
2023-02-11T15:47:53.693Z,18.48
2023-02-11T15:50:29.525Z,14.80
2023-02-11T15:53:00.325Z,16.85
2023-02-11T15:55:29.686Z,17.58
2023-02-11T15:57:58.442Z,18.52
2023-02-11T16:00:33.855Z,15.57
2023-02-11T16:03:00.531Z,16.40
2023-02-11T16:05:34.646Z,14.30
2023-02-11T16:08:19.785Z,14.70
2023-02-11T16:10:58.777Z,17.48
2023-02-11T16:13:28.534Z,14.57
2023-02-11T16:16:04.799Z,16.58
2023-02-11T16:18:40.193Z,14.95
2023-02-11T16:21:16.109Z,14.73
2023-02-11T16:23:49.829Z,14.73
2023-02-11T16:26:36.105Z,17.42
2023-02-11T16:29:14.704Z,17.67
2023-02-11T16:31:45.051Z,16.23
2023-02-11T16:34:15.238Z,16.05
2023-02-11T16:36:42.458Z,18.30
2023-02-11T16:39:10.283Z,15.30
2023-02-11T16:41:36.845Z,16.13
2023-02-11T16:44:03.478Z,18.35
2023-02-11T16:46:31.978Z,18.67
2023-02-11T16:49:09.605Z,16.25
2023-02-11T16:51:39.911Z,14.43
2023-02-11T16:54:07.073Z,14.60
2023-02-11T16:56:33.499Z,15.55
2023-02-11T16:59:00.690Z,17.27
2023-02-11T17:01:27.180Z,17.02
2023-02-11T17:03:53.985Z,15.90
2023-02-11T17:06:20.449Z,14.32
2023-02-11T17:08:46.893Z,17.65
2023-02-11T17:11:16.711Z,17.40
2023-02-11T17:13:43.891Z,19.08
2023-02-11T17:16:18.064Z,15.80
2023-02-11T17:18:45.275Z,16.02
2023-02-11T17:21:12.128Z,16.73
2023-02-11T17:23:38.792Z,15.55
2023-02-11T17:26:06.079Z,17.88
2023-02-11T17:28:33.537Z,18.60
2023-02-11T17:31:01.226Z,16.02
2023-02-11T17:33:27.697Z,16.13
2023-02-11T17:35:54.465Z,16.77
2023-02-11T17:38:21.250Z,16.85
2023-02-11T17:40:56.964Z,13.95
2023-02-11T17:43:23.414Z,16.33
2023-02-11T17:45:50.312Z,17.40
2023-02-11T17:48:17.574Z,15.77
2023-02-11T17:50:43.996Z,14.68
2023-02-11T17:53:10.686Z,14.77
2023-02-11T17:55:38.877Z,17.33
2023-02-11T17:58:05.628Z,16.98
2023-02-11T18:00:32.575Z,16.33
2023-02-11T18:03:02.813Z,16.85
2023-02-11T18:05:34.478Z,15.15
2023-02-11T18:08:00.931Z,15.18
2023-02-11T18:10:27.489Z,13.35
2023-02-11T18:12:53.926Z,17.23
2023-02-11T18:15:20.404Z,15.75
2023-02-11T18:17:46.767Z,15.57
2023-02-11T18:20:13.684Z,20.50
2023-02-11T18:22:40.904Z,18.83
2023-02-11T18:25:08.665Z,16.42
2023-02-11T18:27:35.306Z,16.70
2023-02-11T18:30:01.824Z,14.50
2023-02-11T18:32:28.218Z,16.90
2023-02-11T18:34:54.585Z,15.77
2023-02-11T18:37:21.081Z,17.83
2023-02-11T18:39:47.570Z,19.35
2023-02-11T18:42:14.006Z,16.80
2023-02-11T18:44:40.436Z,13.88
2023-02-11T18:47:06.889Z,14.40
2023-02-11T18:49:35.649Z,15.05
2023-02-11T18:52:02.895Z,15.38
2023-02-11T18:54:29.493Z,15.23
2023-02-11T18:56:55.860Z,17.80
2023-02-11T18:59:22.233Z,15.38
2023-02-11T19:01:48.673Z,14.88
2023-02-11T19:04:19.755Z,14.68
2023-02-11T19:06:49.428Z,16.63
2023-02-11T19:09:18.387Z,15.60
2023-02-11T19:11:48.952Z,14.02
2023-02-11T19:14:18.822Z,15.77
2023-02-11T19:16:46.785Z,13.95
2023-02-11T19:19:13.905Z,15.55
2023-02-11T19:21:43.091Z,15.93
2023-02-11T19:24:10.045Z,16.85
2023-02-11T19:26:37.229Z,17.17
2023-02-11T19:29:05.373Z,16.48
2023-02-11T19:31:32.830Z,15.88
2023-02-11T19:34:00.361Z,16.40
2023-02-11T19:36:27.092Z,15.05
2023-02-11T19:38:53.976Z,15.20
2023-02-11T19:41:22.432Z,13.13
2023-02-11T19:43:52.939Z,13.73
2023-02-11T19:46:21.033Z,17.27
2023-02-11T19:48:48.469Z,13.73
2023-02-11T19:51:15.710Z,15.85
2023-02-11T19:53:43.271Z,14.13
2023-02-11T19:56:10.582Z,17.38
2023-02-11T19:58:38.446Z,14.73
2023-02-11T20:01:25.169Z,15.25
2023-02-11T20:03:53.763Z,15.68
2023-02-11T20:06:26.649Z,14.35
2023-02-11T20:08:58.921Z,13.70
2023-02-11T20:11:28.034Z,14.13
2023-02-11T20:13:55.061Z,17.02
2023-02-11T20:16:27.042Z,17.33
2023-02-11T20:19:00.808Z,15.32
2023-02-11T20:21:31.963Z,13.77
2023-02-11T20:23:59.280Z,14.68
2023-02-11T20:26:32.272Z,17.48
2023-02-11T20:29:02.198Z,16.45
2023-02-11T20:31:32.452Z,15.40
2023-02-11T20:34:00.007Z,14.60
2023-02-11T20:36:31.885Z,15.30
2023-02-11T20:38:59.890Z,15.20
2023-02-11T20:41:30.847Z,15.77
2023-02-11T20:43:59.262Z,17.25
2023-02-11T20:46:28.449Z,14.05
2023-02-11T20:48:56.325Z,14.43
2023-02-11T20:51:26.228Z,13.48
2023-02-11T20:53:53.054Z,15.77
2023-02-11T20:56:25.365Z,18.17
2023-02-11T20:58:52.011Z,18.23
2023-02-11T21:01:20.747Z,15.32
2023-02-11T21:03:53.776Z,14.75
2023-02-11T21:06:22.156Z,14.90
2023-02-11T21:08:48.662Z,14.23
2023-02-11T21:11:15.504Z,20.15
2023-02-11T21:13:42.695Z,14.75
2023-02-11T21:16:13.497Z,13.85
2023-02-11T21:18:40.015Z,12.88
2023-02-11T21:21:07.126Z,14.73
2023-02-11T21:23:34.621Z,14.73
2023-02-11T21:26:01.196Z,14.77
2023-02-11T21:28:28.047Z,14.95
2023-02-11T21:30:56.237Z,15.02
2023-02-11T21:33:24.842Z,14.70
2023-02-11T21:35:58.030Z,16.55
2023-02-11T21:38:25.520Z,15.80
2023-02-11T21:40:52.350Z,15.32
2023-02-11T21:43:19.158Z,13.00
2023-02-11T21:45:48.026Z,16.38
2023-02-11T21:48:15.169Z,15.35
2023-02-11T21:50:44.734Z,14.18
2023-02-11T21:53:12.096Z,16.33
2023-02-11T21:55:39.066Z,14.98
2023-02-11T21:58:06.559Z,14.50
2023-02-11T22:00:33.874Z,17.10
2023-02-11T22:03:00.794Z,15.07
2023-02-11T22:05:27.467Z,15.45
2023-02-11T22:07:53.919Z,14.85
2023-02-11T22:10:20.664Z,15.43
2023-02-11T22:12:47.141Z,15.27
2023-02-11T22:15:13.647Z,15.82
2023-02-11T22:17:40.055Z,16.17
2023-02-11T22:20:07.699Z,16.48
2023-02-11T22:22:35.256Z,15.70
2023-02-11T22:25:02.204Z,15.60
2023-02-11T22:27:28.609Z,15.40
2023-02-11T22:29:54.974Z,16.10
2023-02-11T22:32:21.552Z,14.77
2023-02-11T22:34:47.999Z,16.17
2023-02-11T22:37:15.051Z,14.90
2023-02-11T22:39:42.695Z,15.60
2023-02-11T22:42:09.493Z,14.90
2023-02-11T22:44:37.146Z,16.23
2023-02-11T22:47:03.733Z,15.15
2023-02-11T22:49:32.387Z,16.48
2023-02-11T22:51:59.356Z,15.73
2023-02-11T22:54:26.188Z,16.25
2023-02-11T22:56:53.301Z,15.43
2023-02-11T22:59:20.346Z,14.18
2023-02-11T23:01:46.927Z,14.70
2023-02-11T23:04:15.427Z,15.70
2023-02-11T23:06:41.864Z,15.07
2023-02-11T23:09:12.201Z,15.15
2023-02-11T23:11:39.299Z,16.30
2023-02-11T23:14:08.521Z,16.27
2023-02-11T23:16:35.087Z,16.23
2023-02-11T23:19:05.950Z,16.15
2023-02-11T23:21:34.803Z,16.10
2023-02-11T23:24:13.275Z,15.95
2023-02-11T23:26:41.151Z,14.57
2023-02-11T23:29:08.105Z,15.63
2023-02-11T23:31:40.326Z,15.07
2023-02-11T23:34:08.107Z,15.50
2023-02-11T23:36:34.855Z,17.55
2023-02-11T23:39:01.711Z,14.00
2023-02-11T23:41:28.353Z,15.32
2023-02-11T23:43:56.737Z,15.90
2023-02-11T23:46:24.931Z,15.07
2023-02-11T23:48:52.428Z,15.45
2023-02-11T23:51:19.862Z,14.20
2023-02-11T23:53:46.644Z,15.88
2023-02-11T23:56:19.520Z,15.20
2023-02-11T23:58:48.964Z,15.45
